createdAt,value
2023-04-02T00:00:48.399Z,-309.55
2023-04-02T00:01:50.682Z,312.53
2023-04-02T00:02:54.061Z,309.97
2023-04-02T00:03:57.284Z,302.29
2023-04-02T00:05:00.541Z,322.77
2023-04-02T00:06:03.796Z,307.41
2023-04-02T00:07:07.221Z,-299.31
2023-04-02T00:08:10.484Z,322.77
2023-04-02T00:09:13.689Z,-289.07
2023-04-02T00:10:17.081Z,-296.75
2023-04-02T00:11:20.381Z,304.85
2023-04-02T00:12:23.595Z,307.41
2023-04-02T00:13:27.037Z,292.05
2023-04-02T00:14:30.148Z,309.97
2023-04-02T00:15:32.592Z,-324.91
2023-04-02T00:16:35.869Z,266.45
2023-04-02T00:17:39.047Z,197.33
2023-04-02T00:18:42.433Z,-168.76
2023-04-02T00:19:45.621Z,-145.73
2023-04-02T00:20:49.029Z,317.63
2023-04-02T00:21:52.240Z,-278.85
2023-04-02T00:22:54.678Z,-112.45
2023-04-02T00:23:57.011Z,-4.93
2023-04-02T00:25:00.272Z,79.56
2023-04-02T00:26:02.552Z,158.92
2023-04-02T00:27:04.797Z,205
2023-04-02T00:28:08.017Z,274.12
2023-04-02T00:29:11.455Z,-281.4
2023-04-02T00:30:14.749Z,-33.08
2023-04-02T00:31:17.982Z,92.37
2023-04-02T00:32:21.301Z,87.25
2023-04-02T00:33:24.636Z,117.97
2023-04-02T00:34:27.845Z,174.29
2023-04-02T00:35:31.200Z,197.33
2023-04-02T00:36:34.554Z,207.57
2023-04-02T00:37:37.765Z,179.41
2023-04-02T00:38:41.041Z,197.33
2023-04-02T00:39:44.276Z,222.93
2023-04-02T00:40:46.704Z,263.89
2023-04-02T00:41:49.984Z,235.73
2023-04-02T00:42:53.130Z,171.73
2023-04-02T00:43:56.415Z,212.69
2023-04-02T00:44:59.718Z,0
2023-04-02T00:46:03.125Z,233.17
2023-04-02T00:47:06.486Z,245.97
2023-04-02T00:48:08.614Z,274.13
2023-04-02T00:49:11.063Z,302.29
2023-04-02T00:50:13.221Z,225.49
2023-04-02T00:51:15.639Z,217.81
2023-04-02T00:52:18.976Z,261.33
2023-04-02T00:53:22.164Z,317.65
2023-04-02T00:54:25.557Z,-324.91
2023-04-02T00:55:28.857Z,294.61
2023-04-02T00:56:32.151Z,299.73
2023-04-02T00:57:35.292Z,248.53
2023-04-02T00:58:38.693Z,240.85
2023-04-02T00:59:42.107Z,251.09
2023-04-02T01:00:45.323Z,251.09
2023-04-02T01:01:48.594Z,269.01
2023-04-02T01:02:51.844Z,292.05
2023-04-02T01:03:55.189Z,245.97
2023-04-02T01:04:57.490Z,235.73
2023-04-02T01:06:00.643Z,256.21
2023-04-02T01:07:04.092Z,271.57
2023-04-02T01:08:07.222Z,235.73
2023-04-02T01:09:10.657Z,312.53
2023-04-02T01:10:13.835Z,281.81
2023-04-02T01:11:17.177Z,284.37
2023-04-02T01:12:19.603Z,266.45
2023-04-02T01:13:21.885Z,317.65
2023-04-02T01:14:24.143Z,279.25
2023-04-02T01:15:26.338Z,315.09
2023-04-02T01:16:29.700Z,274.13
2023-04-02T01:17:33.013Z,212.69
2023-04-02T01:18:36.361Z,194.77
2023-04-02T01:19:39.505Z,184.53
2023-04-02T01:20:42.811Z,151.25
2023-04-02T01:21:46.299Z,169.17
2023-04-02T01:22:49.403Z,215.25
2023-04-02T01:23:52.890Z,179.41
2023-04-02T01:24:56.136Z,258.77
2023-04-02T01:25:59.393Z,215.25
2023-04-02T01:27:02.774Z,176.85
2023-04-02T01:28:05.841Z,184.53
2023-04-02T01:29:08.145Z,164.05
2023-04-02T01:30:11.581Z,184.53
2023-04-02T01:31:14.767Z,210.13
2023-04-02T01:32:18.170Z,148.69
2023-04-02T01:33:21.392Z,176.85
2023-04-02T01:34:24.617Z,189.65
2023-04-02T01:35:28.000Z,169.17
2023-04-02T01:36:30.353Z,179.41
2023-04-02T01:37:32.706Z,158.93
2023-04-02T01:38:34.995Z,176.85
2023-04-02T01:39:37.139Z,192.21
2023-04-02T01:40:40.519Z,171.73
2023-04-02T01:41:43.867Z,187.09
2023-04-02T01:42:47.153Z,187.09
2023-04-02T01:43:50.316Z,212.69
2023-04-02T01:44:53.728Z,258.77
2023-04-02T01:45:56.906Z,248.53
2023-04-02T01:47:00.256Z,240.85
2023-04-02T01:48:03.520Z,276.69
2023-04-02T01:49:06.900Z,253.65
2023-04-02T01:50:10.176Z,284.37
2023-04-02T01:51:13.363Z,284.37
2023-04-02T01:52:16.829Z,261.33
2023-04-02T01:53:19.136Z,274.13
2023-04-02T01:54:22.431Z,202.45
2023-04-02T01:55:25.651Z,302.29
2023-04-02T01:56:28.813Z,289.49
2023-04-02T01:57:32.324Z,248.53
2023-04-02T01:58:35.510Z,233.17
2023-04-02T01:59:38.794Z,248.53
2023-04-02T02:00:41.088Z,248.53
2023-04-02T02:01:43.493Z,240.85
2023-04-02T02:02:45.742Z,258.77
2023-04-02T02:03:48.017Z,274.13
2023-04-02T02:04:51.425Z,258.77
2023-04-02T02:05:54.674Z,263.89
2023-04-02T02:06:57.953Z,251.09
2023-04-02T02:08:01.108Z,258.77
2023-04-02T02:09:04.562Z,284.37
2023-04-02T02:10:07.818Z,299.73
2023-04-02T02:11:11.119Z,251.09
2023-04-02T02:12:14.379Z,240.85
2023-04-02T02:13:17.737Z,271.57
2023-04-02T02:14:20.879Z,299.73
2023-04-02T02:15:24.142Z,281.81
2023-04-02T02:16:27.454Z,284.37
2023-04-02T02:17:29.767Z,281.81
2023-04-02T02:18:33.193Z,284.37
2023-04-02T02:19:36.547Z,284.37
2023-04-02T02:20:39.810Z,284.37
2023-04-02T02:21:43.069Z,256.21
2023-04-02T02:22:46.262Z,284.37
2023-04-02T02:23:49.690Z,281.81
2023-04-02T02:24:51.991Z,286.93
2023-04-02T02:25:54.270Z,271.57
2023-04-02T02:26:56.503Z,269.01
2023-04-02T02:27:58.793Z,317.65
2023-04-02T02:29:02.022Z,284.37
2023-04-02T02:30:05.326Z,289.49
2023-04-02T02:31:08.710Z,0
2023-04-02T02:32:12.089Z,256.21
2023-04-02T02:33:15.389Z,174.29
2023-04-02T02:34:18.502Z,0
2023-04-02T02:35:21.905Z,138.45
2023-04-02T02:36:25.079Z,184.53
2023-04-02T02:37:28.474Z,199.89
2023-04-02T02:38:31.688Z,210.13
2023-04-02T02:39:34.955Z,240.85
2023-04-02T02:40:38.250Z,-309.55
2023-04-02T02:41:40.724Z,-217.39
2023-04-02T02:42:43.859Z,-173.87
2023-04-02T02:43:47.172Z,-130.35
2023-04-02T02:44:50.613Z,-45.87
2023-04-02T02:45:53.714Z,-97.07
2023-04-02T02:46:57.030Z,-107.31
2023-04-02T02:48:01.071Z,-89.39
2023-04-02T02:49:02.625Z,-99.63
2023-04-02T02:50:04.995Z,-112.43
2023-04-02T02:51:07.250Z,-117.55
2023-04-02T02:52:10.651Z,-112.43
2023-04-02T02:53:13.002Z,-166.19
2023-04-02T02:54:16.240Z,-163.63
2023-04-02T02:55:19.710Z,-120.11
2023-04-02T02:56:22.856Z,-140.59
2023-04-02T02:57:26.267Z,-230.19
2023-04-02T02:58:29.510Z,-242.99
2023-04-02T02:59:32.700Z,-212.27
2023-04-02T03:00:36.172Z,-158.51
2023-04-02T03:01:39.282Z,-199.47
2023-04-02T03:02:42.632Z,-255.79
2023-04-02T03:03:45.964Z,-245.55
2023-04-02T03:04:48.301Z,-268.59
2023-04-02T03:05:51.544Z,-289.07
2023-04-02T03:06:54.806Z,-324.91
2023-04-02T03:07:58.200Z,307.41
2023-04-02T03:09:01.401Z,315.09
2023-04-02T03:10:04.710Z,233.17
2023-04-02T03:11:07.948Z,222.93
2023-04-02T03:12:11.360Z,189.65
2023-04-02T03:13:13.594Z,245.97
2023-04-02T03:14:15.918Z,269.01
2023-04-02T03:15:19.239Z,320.21
2023-04-02T03:16:22.607Z,281.81
2023-04-02T03:17:25.787Z,266.45
2023-04-02T03:18:29.132Z,243.41
2023-04-02T03:19:32.407Z,258.77
2023-04-02T03:20:35.663Z,235.73
2023-04-02T03:21:38.970Z,235.73
2023-04-02T03:22:42.369Z,228.05
2023-04-02T03:23:45.618Z,256.21
2023-04-02T03:24:48.889Z,258.77
2023-04-02T03:25:52.222Z,269.01
2023-04-02T03:26:55.532Z,274.13
2023-04-02T03:27:57.840Z,286.93
2023-04-02T03:29:01.156Z,322.77
2023-04-02T03:30:04.359Z,315.09
2023-04-02T03:31:07.571Z,-289.07
2023-04-02T03:32:10.951Z,-268.59
2023-04-02T03:33:14.395Z,-258.35
2023-04-02T03:34:17.427Z,-235.31
2023-04-02T03:35:19.858Z,-217.39
2023-04-02T03:36:22.116Z,-168.75
2023-04-02T03:37:24.478Z,-245.55
2023-04-02T03:38:26.893Z,-196.91
2023-04-02T03:39:29.973Z,-163.63
2023-04-02T03:40:32.289Z,-209.71
2023-04-02T03:41:34.670Z,-227.63
2023-04-02T03:42:37.904Z,-248.11
2023-04-02T03:43:41.278Z,-281.39
2023-04-02T03:44:44.564Z,-276.27
2023-04-02T03:45:47.852Z,0
2023-04-02T03:46:51.042Z,-250.67
2023-04-02T03:47:54.412Z,-212.27
2023-04-02T03:48:57.635Z,-235.31
2023-04-02T03:50:01.075Z,-273.71
2023-04-02T03:51:04.213Z,-286.51
2023-04-02T03:52:07.504Z,-309.55
2023-04-02T03:53:10.785Z,-281.39
2023-04-02T03:54:14.297Z,-291.63
2023-04-02T03:55:16.495Z,-322.35
2023-04-02T03:56:19.710Z,-301.87
2023-04-02T03:57:23.055Z,-322.35
2023-04-02T03:58:26.411Z,-296.75
2023-04-02T03:59:29.629Z,-306.99
2023-04-02T04:00:33.011Z,-319.79
2023-04-02T04:01:36.579Z,-296.75
2023-04-02T04:02:38.625Z,-271.15
2023-04-02T04:03:40.770Z,-286.51
2023-04-02T04:04:43.187Z,-271.15
2023-04-02T04:05:45.464Z,-309.55
2023-04-02T04:06:48.835Z,-294.19
2023-04-02T04:07:52.165Z,-289.07
2023-04-02T04:08:55.353Z,-296.75
2023-04-02T04:09:58.609Z,-299.31
2023-04-02T04:11:01.842Z,-317.23
2023-04-02T04:12:05.250Z,325.33
2023-04-02T04:13:08.594Z,-258.35
2023-04-02T04:14:11.719Z,-271.15
2023-04-02T04:15:15.203Z,-286.51
2023-04-02T04:16:18.441Z,-258.35
2023-04-02T04:17:21.702Z,-242.99
2023-04-02T04:18:24.911Z,-291.63
2023-04-02T04:19:27.337Z,-314.67
2023-04-02T04:20:30.626Z,-268.59
2023-04-02T04:21:33.924Z,-283.95
2023-04-02T04:22:37.171Z,-273.71
2023-04-02T04:23:40.368Z,-273.71
2023-04-02T04:24:43.786Z,-314.67
2023-04-02T04:25:46.959Z,-291.63
2023-04-02T04:26:49.261Z,-276.27
2023-04-02T04:27:51.577Z,-283.95
2023-04-02T04:28:53.910Z,-296.75
2023-04-02T04:29:56.273Z,-312.11
2023-04-02T04:30:59.698Z,-281.39
2023-04-02T04:32:02.801Z,-294.19
2023-04-02T04:33:06.084Z,-319.79
2023-04-02T04:34:09.408Z,-301.87
2023-04-02T04:35:13.233Z,315.09
2023-04-02T04:36:16.526Z,322.77
2023-04-02T04:37:19.833Z,312.53
2023-04-02T04:38:23.160Z,-319.79
2023-04-02T04:39:26.453Z,-322.35
2023-04-02T04:40:29.706Z,-327.47
2023-04-02T04:41:33.030Z,322.77
2023-04-02T04:42:36.292Z,-314.67
2023-04-02T04:43:38.580Z,-322.35
2023-04-02T04:44:41.890Z,304.85
2023-04-02T04:45:45.186Z,-314.67
2023-04-02T04:46:48.542Z,315.09
2023-04-02T04:47:51.779Z,315.09
2023-04-02T04:48:55.063Z,-319.79
2023-04-02T04:49:58.337Z,-327.47
2023-04-02T04:51:00.642Z,-327.47
2023-04-02T04:52:02.966Z,317.65
2023-04-02T04:53:06.251Z,317.65
2023-04-02T04:54:09.543Z,317.65
2023-04-02T04:55:13.470Z,0
2023-04-02T04:56:16.760Z,286.93
2023-04-02T04:57:20.072Z,0
2023-04-02T04:58:23.361Z,-281.39
2023-04-02T04:59:26.653Z,-312.11
2023-04-02T05:00:29.916Z,281.81
2023-04-02T05:01:33.225Z,253.65
2023-04-02T05:02:36.516Z,276.69
2023-04-02T05:03:39.853Z,217.81
2023-04-02T05:04:43.097Z,238.29
2023-04-02T05:05:45.402Z,281.81
2023-04-02T05:06:48.688Z,281.81
2023-04-02T05:07:52.065Z,297.17
2023-04-02T05:08:55.350Z,307.41
2023-04-02T05:09:58.626Z,312.53
2023-04-02T05:11:01.867Z,297.17
2023-04-02T05:12:05.223Z,292.05
2023-04-02T05:13:07.469Z,302.29
2023-04-02T05:14:10.763Z,312.53
2023-04-02T05:15:13.333Z,325.33
2023-04-02T05:16:15.659Z,276.69
2023-04-02T05:17:18.084Z,261.33
2023-04-02T05:18:20.320Z,266.45
2023-04-02T05:19:23.562Z,307.41
2023-04-02T05:20:26.853Z,-314.67
2023-04-02T05:21:30.169Z,-291.63
2023-04-02T05:22:33.449Z,-306.99
2023-04-02T05:23:36.823Z,320.21
2023-04-02T05:24:40.028Z,-296.75
2023-04-02T05:25:43.328Z,-309.55
2023-04-02T05:26:46.604Z,-319.79
2023-04-02T05:27:49.886Z,-309.55
2023-04-02T05:28:53.235Z,-268.59
2023-04-02T05:29:56.479Z,-304.43
2023-04-02T05:30:59.779Z,-301.87
2023-04-02T05:32:02.084Z,-296.75
2023-04-02T05:33:05.368Z,-266.03
2023-04-02T05:34:08.653Z,-273.71
2023-04-02T05:35:11.985Z,-237.87
2023-04-02T05:36:15.293Z,-258.35
2023-04-02T05:37:18.552Z,-253.23
2023-04-02T05:38:21.840Z,-258.35
2023-04-02T05:39:24.145Z,-240.43
2023-04-02T05:40:26.454Z,-299.31
2023-04-02T05:41:28.820Z,-314.67
2023-04-02T05:42:31.182Z,-304.43
2023-04-02T05:43:34.377Z,-286.51
2023-04-02T05:44:37.684Z,-314.67
2023-04-02T05:45:41.124Z,-296.75
2023-04-02T05:47:47.534Z,312.53
2023-04-02T05:48:50.819Z,320.21
2023-04-02T05:49:54.138Z,0
2023-04-02T05:50:57.443Z,-296.75
2023-04-02T05:52:00.707Z,309.77
2023-04-02T05:53:03.986Z,-281.39
2023-04-02T05:54:07.291Z,41.35
2023-04-02T05:55:10.578Z,-278.83
2023-04-02T05:56:13.515Z,-301.87
2023-04-02T05:57:16.761Z,-306.99
2023-04-02T05:58:20.039Z,-289.07
2023-04-02T05:59:23.336Z,-296.75
2023-04-02T06:00:26.756Z,-289.07
2023-04-02T06:01:29.914Z,-276.27
2023-04-02T06:02:33.213Z,-240.43
2023-04-02T06:03:36.511Z,-235.31
2023-04-02T06:04:38.881Z,-263.47
2023-04-02T06:05:41.116Z,-296.75
2023-04-02T06:06:43.460Z,-278.83
2023-04-02T06:07:45.736Z,-266.03
2023-04-02T06:08:49.098Z,-266.03
2023-04-02T06:09:52.347Z,-286.51
2023-04-02T06:10:55.618Z,-258.35
2023-04-02T06:11:58.908Z,-296.75
2023-04-02T06:13:02.223Z,-289.07
2023-04-02T06:14:05.482Z,-271.15
2023-04-02T06:15:08.769Z,-322.35
2023-04-02T06:16:12.079Z,-309.55
2023-04-02T06:17:15.361Z,-309.55
2023-04-02T06:18:18.677Z,-296.75
2023-04-02T06:19:21.961Z,-296.75
2023-04-02T06:20:25.248Z,315.09
2023-04-02T06:21:27.540Z,312.53
2023-04-02T06:22:30.855Z,312.53
2023-04-02T06:23:34.142Z,307.41
2023-04-02T06:24:37.420Z,320.21
2023-04-02T06:25:40.760Z,0
2023-04-02T06:26:44.024Z,315.09
2023-04-02T06:27:47.325Z,322.77
2023-04-02T06:28:49.629Z,315.09
2023-04-02T06:29:52.012Z,299.73
2023-04-02T06:30:54.237Z,312.53
2023-04-02T06:31:56.540Z,-327.47
2023-04-02T06:32:59.822Z,-324.91
2023-04-02T06:34:03.128Z,312.53
2023-04-02T06:35:06.419Z,322.77
2023-04-02T06:36:08.771Z,309.97
2023-04-02T06:37:12.038Z,312.53
2023-04-02T06:38:15.511Z,-304.43
2023-04-02T06:39:18.607Z,-273.71
2023-04-02T06:40:21.897Z,-271.15
2023-04-02T06:41:25.227Z,-301.87
2023-04-02T06:42:28.544Z,-301.87
2023-04-02T06:43:31.777Z,-301.87
2023-04-02T06:44:35.075Z,-301.87
2023-04-02T06:45:38.384Z,-301.87
2023-04-02T06:46:41.669Z,325.33
2023-04-02T06:47:44.962Z,312.53
2023-04-02T06:48:48.244Z,-286.51
2023-04-02T06:49:50.600Z,-266.03
2023-04-02T06:50:53.851Z,-283.95
2023-04-02T06:51:57.135Z,-291.63
2023-04-02T06:52:59.441Z,-296.75
2023-04-02T06:54:01.764Z,-306.99
2023-04-02T06:55:05.039Z,325.33
2023-04-02T06:56:08.331Z,-322.35
2023-04-02T06:57:11.625Z,-314.67
2023-04-02T06:58:14.947Z,-299.31
2023-04-02T06:59:18.231Z,299.73
2023-04-02T07:00:21.501Z,0
2023-04-02T07:01:24.789Z,309.97
2023-04-02T07:02:28.090Z,-296.75
2023-04-02T07:03:31.371Z,312.53
2023-04-02T07:04:34.676Z,299.73
2023-04-02T07:05:38.191Z,320.21
2023-04-02T07:06:41.269Z,294.61
2023-04-02T07:07:43.586Z,309.97
2023-04-02T07:08:46.991Z,-294.19
2023-04-02T07:09:50.168Z,292.05
2023-04-02T07:10:53.432Z,294.61
2023-04-02T07:11:56.809Z,253.65
2023-04-02T07:13:00.012Z,292.05
2023-04-02T07:14:03.323Z,-327.47
2023-04-02T07:15:05.619Z,309.97
2023-04-02T07:16:07.944Z,-319.79
2023-04-02T07:17:11.220Z,289.49
2023-04-02T07:18:13.691Z,230.61
2023-04-02T07:19:15.988Z,292.05
2023-04-02T07:20:18.309Z,-291.63
2023-04-02T07:21:20.620Z,309.97
2023-04-02T07:22:23.891Z,281.81
2023-04-02T07:23:27.190Z,248.53
2023-04-02T07:24:30.471Z,263.89
2023-04-02T07:25:33.856Z,235.73
2023-04-02T07:26:37.068Z,235.73
2023-04-02T07:27:40.359Z,230.61
2023-04-02T07:28:43.716Z,279.25
2023-04-02T07:29:46.942Z,238.29
2023-04-02T07:30:50.272Z,194.77
2023-04-02T07:31:53.513Z,169.17
2023-04-02T07:32:56.809Z,158.93
2023-04-02T07:34:00.152Z,148.69
2023-04-02T07:35:02.407Z,0
2023-04-02T07:36:05.705Z,115.41
2023-04-02T07:37:09.084Z,97.49
2023-04-02T07:38:12.303Z,79.57
2023-04-02T07:39:15.568Z,53.97
2023-04-02T07:40:18.910Z,51.41
2023-04-02T07:41:22.163Z,71.89
2023-04-02T07:42:24.479Z,66.77
2023-04-02T07:43:26.800Z,66.77
2023-04-02T07:44:30.086Z,51.41
2023-04-02T07:45:33.371Z,53.97
2023-04-02T07:46:35.690Z,51.41
2023-04-02T07:47:37.996Z,48.85
2023-04-02T07:48:41.295Z,46.29
2023-04-02T07:49:44.595Z,48.85
2023-04-02T07:50:47.871Z,53.97
2023-04-02T07:51:51.154Z,53.97
2023-04-02T07:52:54.467Z,46.29
2023-04-02T07:53:57.809Z,51.41
2023-04-02T07:55:01.052Z,43.73
2023-04-02T07:56:04.364Z,41.17
2023-04-02T07:57:07.629Z,51.41
2023-04-02T07:58:10.920Z,51.41
2023-04-02T07:59:14.201Z,59.09
2023-04-02T08:00:18.939Z,51.41
2023-04-02T08:01:19.796Z,46.29
2023-04-02T08:02:23.085Z,41.17
2023-04-02T08:03:26.389Z,30.93
2023-04-02T08:04:29.684Z,23.25
2023-04-02T08:05:32.977Z,38.61
2023-04-02T08:06:36.363Z,43.73
2023-04-02T08:07:39.541Z,48.85
2023-04-02T08:08:41.873Z,38.61
2023-04-02T08:09:44.190Z,53.97
2023-04-02T08:10:46.526Z,53.97
2023-04-02T08:11:48.856Z,51.41
2023-04-02T08:12:52.134Z,53.97
2023-04-02T08:13:55.385Z,46.29
2023-04-02T08:14:58.666Z,59.09
2023-04-02T08:16:02.058Z,38.61
2023-04-02T08:17:05.302Z,41.17
2023-04-02T08:18:08.615Z,51.41
2023-04-02T08:19:11.843Z,46.29
2023-04-02T08:20:15.122Z,7.89
2023-04-02T08:21:18.427Z,299.72
2023-04-02T08:22:21.731Z,307.4
2023-04-02T08:23:25.070Z,279.24
2023-04-02T08:24:28.312Z,-307
2023-04-02T08:25:30.661Z,-260.92
2023-04-02T08:26:33.905Z,-214.84
2023-04-02T08:27:37.200Z,-155.96
2023-04-02T08:28:40.488Z,-150.84
2023-04-02T08:29:43.773Z,-125.24
2023-04-02T08:30:47.076Z,-132.92
2023-04-02T08:31:50.366Z,-109.88
2023-04-02T08:32:52.701Z,-130.36
2023-04-02T08:33:55.029Z,-112.44
2023-04-02T08:34:57.308Z,-112.44
2023-04-02T08:35:59.608Z,-107.32
2023-04-02T08:37:02.987Z,-107.32
2023-04-02T08:38:06.183Z,-109.88
2023-04-02T08:39:09.468Z,-109.88
2023-04-02T08:40:12.797Z,-107.32
2023-04-02T08:41:16.067Z,-112.44
2023-04-02T08:42:19.344Z,-112.44
2023-04-02T08:43:22.651Z,-104.76
2023-04-02T08:44:25.933Z,0
2023-04-02T08:45:29.272Z,-109.88
2023-04-02T08:46:32.562Z,-112.44
2023-04-02T08:47:35.894Z,-107.32
2023-04-02T08:48:39.117Z,-99.64
2023-04-02T08:49:41.572Z,-99.64
2023-04-02T08:50:44.774Z,-97.08
2023-04-02T08:51:48.084Z,-76.6
2023-04-02T08:52:51.360Z,-43.32
2023-04-02T08:53:54.585Z,-68.92
2023-04-02T08:54:57.904Z,-89.4
2023-04-02T08:56:01.204Z,-63.8
2023-04-02T08:57:03.528Z,-66.36
2023-04-02T08:58:05.816Z,-74.04
2023-04-02T08:59:08.217Z,-97.08
2023-04-02T09:00:11.534Z,-94.52
2023-04-02T09:01:14.154Z,-84.28
2023-04-02T09:02:17.312Z,-91.96
2023-04-02T09:03:20.545Z,-79.16
2023-04-02T09:04:23.894Z,-71.48
2023-04-02T09:05:27.141Z,-84.28
2023-04-02T09:06:30.416Z,-76.6
2023-04-02T09:07:33.725Z,-53.56
2023-04-02T09:08:37.044Z,-81.72
2023-04-02T09:09:40.365Z,-68.92
2023-04-02T09:10:43.598Z,-74.04
2023-04-02T09:11:46.921Z,-74.04
2023-04-02T09:12:50.228Z,-81.72
2023-04-02T09:13:53.464Z,-84.28
2023-04-02T09:14:55.907Z,-84.28
2023-04-02T09:15:59.105Z,-86.84
2023-04-02T09:17:02.448Z,-84.28
2023-04-02T09:18:05.655Z,-81.72
2023-04-02T09:19:08.954Z,-91.96
2023-04-02T09:20:12.234Z,-81.72
2023-04-02T09:21:14.596Z,-84.28
2023-04-02T09:22:16.856Z,-84.28
2023-04-02T09:23:20.284Z,-79.16
2023-04-02T09:24:23.474Z,-76.6
2023-04-02T09:25:26.852Z,-68.92
2023-04-02T09:26:30.038Z,-66.36
2023-04-02T09:27:33.323Z,-66.36
2023-04-02T09:28:36.683Z,-66.36
2023-04-02T09:29:39.916Z,-48.44
2023-04-02T09:30:43.211Z,-79.16
2023-04-02T09:31:46.520Z,-71.48
2023-04-02T09:32:49.810Z,-79.16
2023-04-02T09:33:53.147Z,-91.96
2023-04-02T09:34:56.427Z,-89.4
2023-04-02T09:35:58.697Z,-99.64
2023-04-02T09:37:01.947Z,-84.28
2023-04-02T09:38:05.251Z,-84.28
2023-04-02T09:39:08.650Z,-79.16
2023-04-02T09:40:11.835Z,-68.92
2023-04-02T09:41:15.155Z,-61.24
2023-04-02T09:42:18.417Z,-71.48
2023-04-02T09:43:20.737Z,-81.72
2023-04-02T09:44:23.045Z,-81.72
2023-04-02T09:45:25.499Z,-91.96
2023-04-02T09:46:28.775Z,-99.64
2023-04-02T09:47:31.176Z,-94.52
2023-04-02T09:48:33.397Z,-89.4
2023-04-02T09:49:36.767Z,-97.08
2023-04-02T09:50:40.031Z,-91.96
2023-04-02T09:51:43.344Z,-89.4
2023-04-02T09:52:46.557Z,-76.6
2023-04-02T09:53:49.990Z,-86.84
2023-04-02T09:54:53.154Z,-76.6
2023-04-02T09:55:56.498Z,-58.68
2023-04-02T09:56:59.784Z,-58.68
2023-04-02T09:58:03.001Z,0
2023-04-02T09:59:06.321Z,41.17
2023-04-02T10:00:09.667Z,-30.52
2023-04-02T10:01:12.941Z,-56.12
2023-04-02T10:02:15.196Z,-74.04
2023-04-02T10:03:18.550Z,-79.16
2023-04-02T10:04:21.792Z,-89.4
2023-04-02T10:05:25.096Z,-71.48
2023-04-02T10:06:28.362Z,-61.24
2023-04-02T10:07:30.673Z,-74.04
2023-04-02T10:08:33.958Z,-76.6
2023-04-02T10:09:36.299Z,-79.16
2023-04-02T10:10:38.655Z,-97.08
2023-04-02T10:11:42.008Z,-79.16
2023-04-02T10:12:44.255Z,-61.24
2023-04-02T10:13:46.500Z,15.57
2023-04-02T10:14:49.813Z,13.01
2023-04-02T10:15:53.088Z,-38.2
2023-04-02T10:16:56.465Z,-51
2023-04-02T10:17:59.675Z,-40.76
2023-04-02T10:19:03.001Z,-61.24
2023-04-02T10:20:06.287Z,-74.04
2023-04-02T10:21:09.544Z,-71.48
2023-04-02T10:22:12.833Z,-63.8
2023-04-02T10:23:16.130Z,-58.68
2023-04-02T10:24:19.465Z,-27.96
2023-04-02T10:25:22.717Z,0
2023-04-02T10:26:26.034Z,-51
2023-04-02T10:27:28.437Z,-84.28
2023-04-02T10:28:31.599Z,-71.48
2023-04-02T10:29:34.883Z,-79.16
2023-04-02T10:30:38.193Z,-79.16
2023-04-02T10:31:41.472Z,-68.92
2023-04-02T10:32:44.865Z,-56.12
2023-04-02T10:33:48.080Z,-17.72
2023-04-02T10:34:50.381Z,-22.84
2023-04-02T10:35:52.706Z,15.57
2023-04-02T10:36:56.003Z,18.13
2023-04-02T10:37:59.289Z,5.33
2023-04-02T10:39:02.553Z,15.57
2023-04-02T10:40:05.872Z,15.57
2023-04-02T10:41:09.224Z,51.41
2023-04-02T10:42:12.431Z,64.21
2023-04-02T10:43:15.745Z,97.49
2023-04-02T10:44:19.038Z,117.97
2023-04-02T10:45:22.396Z,79.57
2023-04-02T10:46:25.647Z,89.81
2023-04-02T10:47:28.885Z,69.33
2023-04-02T10:48:32.186Z,87.25
2023-04-02T10:49:34.489Z,92.37
2023-04-02T10:50:37.870Z,41.17
2023-04-02T10:51:41.075Z,25.81
2023-04-02T10:52:44.359Z,-4.92
2023-04-02T10:53:47.671Z,-10.04
2023-04-02T10:54:50.971Z,-15.16
2023-04-02T10:55:54.253Z,-10.04
2023-04-02T10:56:56.570Z,-15.16
2023-04-02T10:57:58.909Z,-25.4
2023-04-02T10:59:01.170Z,-30.52
2023-04-02T11:00:03.505Z,-48.44
2023-04-02T11:01:06.770Z,-43.32
2023-04-02T11:02:10.074Z,-43.32
2023-04-02T11:03:13.392Z,-51
2023-04-02T11:04:17.355Z,-76.6
2023-04-02T11:05:20.686Z,-76.6
2023-04-02T11:06:23.904Z,-76.6
2023-04-02T11:07:27.198Z,-61.24
2023-04-02T11:08:30.499Z,-58.68
2023-04-02T11:09:33.789Z,-68.92
2023-04-02T11:10:37.094Z,-58.68
2023-04-02T11:11:40.506Z,-43.32
2023-04-02T11:12:43.660Z,-71.48
2023-04-02T11:13:45.976Z,-56.12
2023-04-02T11:14:49.257Z,-53.56
2023-04-02T11:15:52.792Z,-48.44
2023-04-02T11:16:55.983Z,-38.2
2023-04-02T11:17:59.136Z,-38.2
2023-04-02T11:19:02.430Z,-48.44
2023-04-02T11:20:05.741Z,-66.36
2023-04-02T11:21:08.082Z,-68.92
2023-04-02T11:22:10.333Z,-68.92
2023-04-02T11:23:13.696Z,-63.8
2023-04-02T11:24:17.559Z,-84.28
2023-04-02T11:25:19.882Z,-76.6
2023-04-02T11:26:22.208Z,-74.04
2023-04-02T11:27:25.462Z,-68.92
2023-04-02T11:28:28.779Z,-84.28
2023-04-02T11:29:32.037Z,-81.72
2023-04-02T11:30:35.335Z,-84.28
2023-04-02T11:31:38.624Z,-81.72
2023-04-02T11:32:41.950Z,-99.64
2023-04-02T11:33:45.223Z,-94.52
2023-04-02T11:34:48.515Z,-86.84
2023-04-02T11:35:51.883Z,-97.08
2023-04-02T11:36:55.079Z,-102.2
2023-04-02T11:37:58.402Z,-99.64
2023-04-02T11:39:01.667Z,-117.56
2023-04-02T11:40:04.057Z,-107.32
2023-04-02T11:41:07.264Z,-97.08
2023-04-02T11:42:10.585Z,-104.76
2023-04-02T11:43:13.886Z,-109.88
2023-04-02T11:44:17.764Z,-107.32
2023-04-02T11:45:21.078Z,-86.84
2023-04-02T11:46:24.365Z,-99.64
2023-04-02T11:47:26.796Z,-117.56
2023-04-02T11:48:29.009Z,-109.88
2023-04-02T11:49:31.285Z,-102.2
2023-04-02T11:50:33.596Z,-102.2
2023-04-02T11:51:36.897Z,-91.96
2023-04-02T11:52:40.173Z,-99.64
2023-04-02T11:53:43.470Z,-115
2023-04-02T11:54:46.759Z,-99.64
2023-04-02T11:55:50.142Z,-117.56
2023-04-02T11:56:53.436Z,-115
2023-04-02T11:57:56.632Z,-109.88
2023-04-02T11:59:00.058Z,-115
2023-04-02T12:00:03.249Z,-117.56
2023-04-02T12:01:06.550Z,-125.24
2023-04-02T12:02:09.811Z,-120.12
2023-04-02T12:03:13.111Z,-109.88
2023-04-02T12:04:15.469Z,-130.36
2023-04-02T12:05:18.732Z,-122.68
2023-04-02T12:06:21.998Z,-132.92
2023-04-02T12:07:25.329Z,-130.36
2023-04-02T12:08:28.580Z,-130.36
2023-04-02T12:09:32.002Z,-127.8
2023-04-02T12:10:35.304Z,-138.04
2023-04-02T12:11:37.511Z,-125.24
2023-04-02T12:12:39.860Z,-125.24
2023-04-02T12:13:42.094Z,-130.36
2023-04-02T12:14:44.430Z,-130.36
2023-04-02T12:15:47.690Z,-130.36
2023-04-02T12:16:51.150Z,-125.24
2023-04-02T12:17:54.282Z,-130.36
2023-04-02T12:18:57.562Z,-132.92
2023-04-02T12:20:00.872Z,-125.24
2023-04-02T12:21:04.150Z,-117.56
2023-04-02T12:22:07.435Z,-130.36
2023-04-02T12:23:10.722Z,-127.8
2023-04-02T12:24:14.033Z,-138.04
2023-04-02T12:25:17.938Z,-122.68
2023-04-02T12:26:21.304Z,-130.36
2023-04-02T12:27:24.551Z,-140.6
2023-04-02T12:28:26.834Z,-138.04
2023-04-02T12:29:30.153Z,-130.36
2023-04-02T12:30:33.408Z,-132.92
2023-04-02T12:31:36.727Z,-145.72
2023-04-02T12:32:40.025Z,-140.6
2023-04-02T12:33:43.328Z,-140.6
2023-04-02T12:34:46.692Z,-138.04
2023-04-02T12:35:48.911Z,-143.16
2023-04-02T12:36:51.195Z,-143.16
2023-04-02T12:37:54.485Z,-140.6
2023-04-02T12:38:57.806Z,-145.72
2023-04-02T12:40:01.090Z,-140.6
2023-04-02T12:41:04.372Z,-143.16
2023-04-02T12:42:07.655Z,-135.48
2023-04-02T12:43:10.980Z,-135.48
2023-04-02T12:44:14.298Z,-135.48
2023-04-02T12:45:18.171Z,-120.12
2023-04-02T12:46:21.448Z,-120.12
2023-04-02T12:47:24.766Z,-99.64
2023-04-02T12:48:28.037Z,-84.28
2023-04-02T12:49:31.343Z,-79.16
2023-04-02T12:50:33.652Z,-68.92
2023-04-02T12:51:36.915Z,-68.92
2023-04-02T12:52:40.218Z,-53.56
2023-04-02T12:53:43.605Z,-53.56
2023-04-02T12:54:46.862Z,-68.92
2023-04-02T12:55:50.109Z,-58.68
2023-04-02T12:56:53.391Z,-68.92
2023-04-02T12:57:55.715Z,-76.6
2023-04-02T12:58:58.005Z,0.21
2023-04-02T13:00:00.358Z,-53.56
2023-04-02T13:01:02.629Z,-97.08
2023-04-02T13:02:05.925Z,-91.96
2023-04-02T13:03:09.208Z,-89.4
2023-04-02T13:04:12.515Z,-91.96
2023-04-02T13:05:15.851Z,-107.32
2023-04-02T13:06:19.082Z,-97.08